createdAt,value
2023-03-15T00:00:12.346Z,2.25
2023-03-15T00:05:14.101Z,2.15
2023-03-15T00:10:15.916Z,1.90
2023-03-15T00:15:17.515Z,2.08
2023-03-15T00:20:19.964Z,1.92
2023-03-15T00:25:21.758Z,1.70
2023-03-15T00:30:23.451Z,1.77
2023-03-15T00:35:25.292Z,1.95
2023-03-15T00:40:27.197Z,1.60
2023-03-15T00:45:28.745Z,2.03
2023-03-15T00:50:30.315Z,2.10
2023-03-15T00:55:31.889Z,1.80
2023-03-15T01:00:33.481Z,1.70
2023-03-15T01:05:36.217Z,1.93
2023-03-15T01:10:37.771Z,1.93
2023-03-15T01:15:39.414Z,2.10
2023-03-15T01:20:43.787Z,2.05
2023-03-15T01:25:45.320Z,1.83
2023-03-15T01:30:51.396Z,1.93
2023-03-15T01:36:01.027Z,1.87
2023-03-15T01:41:03.449Z,2.37
2023-03-15T01:46:06.958Z,1.87
2023-03-15T01:51:21.837Z,2.20
2023-03-15T01:56:24.428Z,2.15
2023-03-15T02:01:26.175Z,1.97
2023-03-15T02:06:27.996Z,1.87
2023-03-15T02:11:30.561Z,1.63
2023-03-15T02:16:32.302Z,2.00
2023-03-15T02:22:20.654Z,1.70
2023-03-15T02:27:28.893Z,1.77
2023-03-15T02:32:31.351Z,1.75
2023-03-15T02:37:33.048Z,1.90
2023-03-15T02:42:34.644Z,2.08
2023-03-15T02:47:36.262Z,2.05
2023-03-15T02:52:37.853Z,1.95
2023-03-15T02:57:39.545Z,1.93
2023-03-15T03:02:43.555Z,2.17
2023-03-15T03:07:45.806Z,1.60
2023-03-15T03:12:53.301Z,2.07
2023-03-15T03:17:59.581Z,2.03
2023-03-15T03:23:05.902Z,2.28
2023-03-15T03:28:07.926Z,1.97
2023-03-15T03:33:09.696Z,2.17
2023-03-15T03:38:11.979Z,1.77
2023-03-15T03:43:16.855Z,1.90
2023-03-15T03:48:19.323Z,2.17
2023-03-15T03:53:20.942Z,1.70
2023-03-15T03:58:23.232Z,2.00
2023-03-15T04:03:38.980Z,1.90
2023-03-15T04:08:45.302Z,1.90
2023-03-15T04:13:51.636Z,2.00
2023-03-15T04:18:56.536Z,1.67
2023-03-15T04:23:59.980Z,2.30
2023-03-15T04:29:14.539Z,1.63
2023-03-15T04:34:38.912Z,2.03
2023-03-15T04:40:02.615Z,2.23
2023-03-15T04:45:23.795Z,1.83
2023-03-15T04:50:48.669Z,2.30
2023-03-15T04:55:56.479Z,1.63
2023-03-15T05:01:23.270Z,1.60
2023-03-15T05:06:32.917Z,1.70
2023-03-15T05:11:55.415Z,1.90
2023-03-15T05:17:33.651Z,1.93
2023-03-15T05:22:54.690Z,1.67
2023-03-15T05:28:18.321Z,2.07
2023-03-15T05:33:46.838Z,1.90
2023-03-15T05:39:08.865Z,1.93
2023-03-15T05:44:36.916Z,2.27
2023-03-15T05:49:38.481Z,2.60
2023-03-15T05:55:00.419Z,1.80
2023-03-15T06:00:02.094Z,1.87
2023-03-15T06:05:15.791Z,2.00
2023-03-15T06:10:17.566Z,2.27
2023-03-15T06:15:19.993Z,2.07
2023-03-15T06:20:22.803Z,2.27
2023-03-15T06:25:24.558Z,2.30
2023-03-15T06:30:26.420Z,2.10
2023-03-15T06:35:32.115Z,2.40
2023-03-15T06:40:34.101Z,2.30
2023-03-15T06:45:35.788Z,1.93
2023-03-15T06:50:46.969Z,2.40
2023-03-15T06:55:50.772Z,2.38
2023-03-15T07:00:52.361Z,2.97
2023-03-15T07:05:54.696Z,2.55
2023-03-15T07:10:56.298Z,2.33
2023-03-15T07:15:57.945Z,1.92
2023-03-15T07:21:00.861Z,2.37
2023-03-15T07:26:02.637Z,2.67
2023-03-15T07:31:05.747Z,1.95
2023-03-15T07:36:08.108Z,2.33
2023-03-15T07:41:09.697Z,2.60
2023-03-15T07:46:15.507Z,2.25
2023-03-15T07:51:17.160Z,2.10
2023-03-15T07:56:19.784Z,2.05
2023-03-15T08:01:21.700Z,2.05
2023-03-15T08:06:23.381Z,2.20
2023-03-15T08:11:24.991Z,2.17
2023-03-15T08:16:26.675Z,2.08
2023-03-15T08:21:28.297Z,1.88
2023-03-15T08:26:29.861Z,2.17
2023-03-15T08:31:31.570Z,2.10
2023-03-15T08:36:33.212Z,1.83
2023-03-15T08:41:34.886Z,1.80
2023-03-15T08:46:36.666Z,2.10
2023-03-15T08:51:38.261Z,1.88
2023-03-15T08:56:41.317Z,2.00
2023-03-15T09:01:44.860Z,1.88
2023-03-15T09:06:46.490Z,1.90
2023-03-15T09:11:48.073Z,1.75
2023-03-15T09:16:49.691Z,2.20
2023-03-15T09:21:51.392Z,1.80
2023-03-15T09:26:52.959Z,2.13
2023-03-15T09:31:54.942Z,2.20
2023-03-15T09:36:56.987Z,2.20
2023-03-15T09:41:59.925Z,2.35
2023-03-15T09:47:10.046Z,2.25
2023-03-15T09:52:45.583Z,2.83
2023-03-15T09:57:52.124Z,2.10
2023-03-15T10:03:07.037Z,2.17
2023-03-15T10:08:17.547Z,2.42
2023-03-15T10:13:43.696Z,2.22
2023-03-15T10:18:48.105Z,2.55
2023-03-15T10:23:54.253Z,2.03
2023-03-15T10:28:55.834Z,2.40
2023-03-15T10:33:57.480Z,2.42
2023-03-15T10:38:59.324Z,2.23
2023-03-15T10:44:04.623Z,2.00
2023-03-15T10:49:14.042Z,1.97
2023-03-15T10:54:24.035Z,2.28
2023-03-15T10:59:27.791Z,2.50
2023-03-15T11:04:33.793Z,2.05
2023-03-15T11:09:44.763Z,2.10
2023-03-15T11:14:48.663Z,2.10
2023-03-15T11:20:09.486Z,2.10
2023-03-15T11:25:15.420Z,2.38
2023-03-15T11:30:17.324Z,2.20
2023-03-15T11:35:24.567Z,2.15
2023-03-15T11:40:42.540Z,2.10
2023-03-15T11:46:06.189Z,1.90
2023-03-15T11:51:16.167Z,2.00
2023-03-15T11:56:26.961Z,1.60
2023-03-15T12:01:28.538Z,2.35
2023-03-15T12:06:37.909Z,1.63
2023-03-15T12:11:41.651Z,1.65
2023-03-15T12:16:45.856Z,2.13
2023-03-15T12:21:51.640Z,2.00
2023-03-15T12:27:02.649Z,1.80
2023-03-15T12:32:04.165Z,1.52
2023-03-15T12:37:21.318Z,1.85
2023-03-15T12:42:32.060Z,1.98
2023-03-15T12:47:49.855Z,1.90
2023-03-15T12:52:53.563Z,1.98
2023-03-15T12:57:57.832Z,2.05
2023-03-15T13:03:06.401Z,2.10
2023-03-15T13:08:21.909Z,2.33
2023-03-15T13:13:39.630Z,1.90
2023-03-15T13:18:52.821Z,2.00
2023-03-15T13:23:57.715Z,2.03
2023-03-15T13:29:21.835Z,1.80
2023-03-15T13:34:24.367Z,2.30
2023-03-15T13:39:30.429Z,2.17
2023-03-15T13:44:33.543Z,2.40
2023-03-15T13:49:35.200Z,1.70
2023-03-15T13:54:36.753Z,2.03
2023-03-15T13:59:46.209Z,2.17
2023-03-15T14:04:59.852Z,2.05
2023-03-15T14:10:30.964Z,1.83
2023-03-15T14:15:32.479Z,2.05
2023-03-15T14:20:40.826Z,1.70
2023-03-15T14:25:42.883Z,1.85
2023-03-15T14:30:52.049Z,2.42
2023-03-15T14:35:57.458Z,1.92
2023-03-15T14:41:33.649Z,1.70
2023-03-15T14:46:35.256Z,1.77
2023-03-15T14:51:36.830Z,1.77
2023-03-15T14:56:39.655Z,1.85
2023-03-15T15:01:46.500Z,1.65
2023-03-15T15:06:52.103Z,1.73
2023-03-15T15:11:54.326Z,1.48
2023-03-15T15:16:56.187Z,1.50
2023-03-15T15:21:57.811Z,1.40
2023-03-15T15:29:14.688Z,1.55
2023-03-15T15:34:16.267Z,1.70
2023-03-15T15:39:27.521Z,1.30
2023-03-15T15:44:29.225Z,1.40
2023-03-15T15:49:30.815Z,1.65
2023-03-15T15:54:35.580Z,1.65
2023-03-15T15:59:37.173Z,1.30
2023-03-15T16:04:40.625Z,1.30
2023-03-15T16:09:45.539Z,1.52
2023-03-15T16:14:47.125Z,2.10
2023-03-15T16:19:52.143Z,1.60
2023-03-15T16:24:55.488Z,1.70
2023-03-15T16:29:57.164Z,1.98
2023-03-15T16:34:58.717Z,1.65
2023-03-15T16:40:01.660Z,1.92
2023-03-15T16:45:12.228Z,1.85
2023-03-15T16:50:14.131Z,1.58
2023-03-15T16:55:18.673Z,1.90
2023-03-15T17:00:20.829Z,2.00
2023-03-15T17:05:24.659Z,1.83
2023-03-15T17:10:32.618Z,1.83
2023-03-15T17:15:34.249Z,2.20
2023-03-15T17:20:35.804Z,2.03
2023-03-15T17:25:37.408Z,2.13
2023-03-15T17:30:39.012Z,2.20
2023-03-15T17:35:43.928Z,2.55
2023-03-15T17:40:45.708Z,2.45
2023-03-15T17:45:47.628Z,2.17
2023-03-15T17:50:49.374Z,2.75
2023-03-15T17:55:53.440Z,2.40
2023-03-15T18:00:55.240Z,2.25
2023-03-15T18:05:57.625Z,2.65
2023-03-15T18:10:59.291Z,2.53
2023-03-15T18:16:00.980Z,2.97
2023-03-15T18:21:02.588Z,2.70
2023-03-15T18:26:04.695Z,2.55
2023-03-15T18:31:13.982Z,2.30
2023-03-15T18:36:16.220Z,2.60
2023-03-15T18:41:20.998Z,1.90
2023-03-15T18:46:24.639Z,2.10
2023-03-15T18:51:28.078Z,2.55
2023-03-15T18:56:34.364Z,2.15
2023-03-15T19:01:36.083Z,2.23
2023-03-15T19:06:37.822Z,2.45
2023-03-15T19:11:41.716Z,2.58
2023-03-15T19:16:43.352Z,2.20
2023-03-15T19:21:44.918Z,2.38
2023-03-15T19:26:46.486Z,2.30
2023-03-15T19:31:48.043Z,3.00
2023-03-15T19:36:49.676Z,3.50
2023-03-15T19:41:51.300Z,3.47
2023-03-15T19:46:52.905Z,2.80
2023-03-15T19:51:54.487Z,3.47
2023-03-15T19:56:58.456Z,2.80
2023-03-15T20:02:00.077Z,2.90
2023-03-15T20:07:01.732Z,2.90
2023-03-15T20:12:04.036Z,2.77
2023-03-15T20:17:05.779Z,3.67
2023-03-15T20:22:07.371Z,3.40
2023-03-15T20:27:08.961Z,3.23
2023-03-15T20:32:10.608Z,3.67
2023-03-15T20:37:13.436Z,3.83
2023-03-15T20:42:15.051Z,4.13
2023-03-15T20:47:17.398Z,3.83
2023-03-15T20:52:18.931Z,3.37
2023-03-15T20:57:21.026Z,3.55
2023-03-15T21:02:22.672Z,3.90
2023-03-15T21:07:24.456Z,3.58
2023-03-15T21:12:25.998Z,3.65
2023-03-15T21:17:27.845Z,3.77
2023-03-15T21:22:29.434Z,3.73
2023-03-15T21:27:32.736Z,4.50
2023-03-15T21:32:35.557Z,4.80
2023-03-15T21:37:37.342Z,4.93
2023-03-15T21:42:39.660Z,4.37
2023-03-15T21:47:41.529Z,4.40
2023-03-15T21:52:44.850Z,4.20
2023-03-15T21:57:46.386Z,4.63
2023-03-15T22:02:48.706Z,3.77
2023-03-15T22:07:50.370Z,3.93
2023-03-15T22:12:54.557Z,3.80
2023-03-15T22:17:56.325Z,4.10
2023-03-15T22:22:57.878Z,3.23
2023-03-15T22:27:59.878Z,3.93
2023-03-15T22:33:01.707Z,4.07
2023-03-15T22:38:09.916Z,4.17
2023-03-15T22:43:11.743Z,4.73
2023-03-15T22:48:13.371Z,4.07
2023-03-15T22:53:14.936Z,4.40
2023-03-15T22:58:16.569Z,3.63
2023-03-15T23:03:18.646Z,4.27
2023-03-15T23:08:20.492Z,3.70
2023-03-15T23:13:22.080Z,3.80
2023-03-15T23:18:23.684Z,4.20
2023-03-15T23:23:27.033Z,3.63
2023-03-15T23:28:29.079Z,3.87
2023-03-15T23:33:33.973Z,4.07
2023-03-15T23:38:35.618Z,4.43
2023-03-15T23:43:37.180Z,4.23
2023-03-15T23:48:38.886Z,3.67
2023-03-15T23:53:40.533Z,4.10
2023-03-15T23:58:42.200Z,4.43
